Time;durP1;ratioP1;P1;durP2;ratioP2;P2;SDS_P1;SDS_P2;PMS_P1;PMS_P2;Temp;Humidity;BMP_temperature;BMP_pressure;BME280_temperature;BME280_humidity;BME280_pressure;Samples;Min_cycle;Max_cycle;Signal;HPM_P1;HPM_P2
2021/07/08 00:02:11;;;;;;;13.02;9.05;;;;;;;;;;5020842;28;20041;-41
2021/07/08 00:04:39;;;;;;;17.52;9.93;;;;;;;;;;5020818;28;20021;-43
2021/07/08 00:07:05;;;;;;;14.55;9.00;;;;;;;;;;5020703;28;20169;-43
2021/07/08 00:09:31;;;;;;;16.13;9.23;;;;;;;;;;5021043;28;20032;-43
2021/07/08 00:11:59;;;;;;;13.80;9.18;;;;;;;;;;5020714;28;20053;-42
2021/07/08 00:14:25;;;;;;;15.02;9.07;;;;;;;;;;5021481;28;20046;-42
2021/07/08 00:16:51;;;;;;;14.00;8.52;;;;;;;;;;5020890;28;20969;-42
2021/07/08 00:19:17;;;;;;;14.02;8.88;;;;;;;;;;5046128;28;20036;-41
2021/07/08 00:21:44;;;;;;;12.35;8.57;;;;;;;;;;5071315;28;20029;-41
2021/07/08 00:24:10;;;;;;;10.10;7.57;;;;;;;;;;5072693;28;20021;-43
2021/07/08 00:26:36;;;;;;;14.45;7.43;;;;;;;;;;5072555;28;20021;-41
2021/07/08 00:29:02;;;;;;;13.25;8.05;;;;;;;;;;5072656;28;20473;-42
2021/07/08 00:31:28;;;;;;;14.70;8.32;;;;;;;;;;5075549;28;20552;-43
2021/07/08 00:33:54;;;;;;;9.50;7.47;;;;;;;;;;5076422;28;20086;-43
2021/07/08 00:36:21;;;;;;;10.80;7.55;;;;;;;;;;5076283;28;20059;-43
2021/07/08 00:38:47;;;;;;;11.20;7.57;;;;;;;;;;5076360;28;20425;-44
2021/07/08 00:41:13;;;;;;;11.43;7.93;;;;;;;;;;5076255;28;20046;-44
2021/07/08 00:43:39;;;;;;;10.60;7.63;;;;;;;;;;5076490;28;20562;-47
2021/07/08 00:46:05;;;;;;;13.48;7.82;;;;;;;;;;5076180;28;20039;-45
2021/07/08 00:48:32;;;;;;;10.80;7.63;;;;;;;;;;5076211;28;20056;-46
2021/07/08 00:50:58;;;;;;;12.50;7.72;;;;;;;;;;5065510;28;20469;-44
2021/07/08 00:53:24;;;;;;;10.73;7.18;;;;;;;;;;5056106;28;20021;-44
2021/07/08 00:55:57;;;;;;;12.95;8.07;;;;;;;;;;5040044;28;20044;-44
2021/07/08 00:58:23;;;;;;;10.68;7.13;;;;;;;;;;5036378;28;20041;-45
2021/07/08 01:00:49;;;;;;;10.35;7.93;;;;;;;;;;5035968;28;20108;-44
2021/07/08 01:03:16;;;;;;;12.13;8.32;;;;;;;;;;5036023;28;20057;-45
2021/07/08 01:05:45;;;;;;;14.32;8.05;;;;;;;;;;5036250;28;20382;-45
2021/07/08 01:08:12;;;;;;;19.13;9.13;;;;;;;;;;5036027;28;20029;-44
2021/07/08 01:10:38;;;;;;;15.35;9.55;;;;;;;;;;5035809;28;20375;-45
2021/07/08 01:13:05;;;;;;;13.35;9.02;;;;;;;;;;5035798;28;20025;-45
2021/07/08 01:15:31;;;;;;;12.88;9.38;;;;;;;;;;5035477;28;20042;-45
2021/07/08 01:17:58;;;;;;;12.82;9.55;;;;;;;;;;5035733;28;20052;-45
2021/07/08 01:20:26;;;;;;;12.57;8.68;;;;;;;;;;5044541;28;20025;-45
2021/07/08 01:22:58;;;;;;;14.50;10.15;;;;;;;;;;5055763;28;20024;-45
2021/07/08 01:25:27;;;;;;;14.77;10.82;;;;;;;;;;5055358;28;20412;-44
2021/07/08 01:27:53;;;;;;;15.27;11.20;;;;;;;;;;5055391;28;20056;-45
2021/07/08 01:30:20;;;;;;;25.05;11.55;;;;;;;;;;5055484;28;20492;-45
2021/07/08 01:32:46;;;;;;;17.13;11.40;;;;;;;;;;5055309;28;20021;-45
2021/07/08 01:35:13;;;;;;;13.75;9.82;;;;;;;;;;5055355;28;20390;-45
2021/07/08 01:37:41;;;;;;;11.43;8.32;;;;;;;;;;5055169;28;20029;-45
2021/07/08 01:40:09;;;;;;;13.20;9.45;;;;;;;;;;5055179;28;20412;-43
2021/07/08 01:42:35;;;;;;;11.57;8.55;;;;;;;;;;5054829;28;20428;-45
2021/07/08 01:45:01;;;;;;;15.88;9.55;;;;;;;;;;5054999;28;20059;-44
2021/07/08 01:47:27;;;;;;;16.48;10.93;;;;;;;;;;5055099;28;20048;-43
2021/07/08 01:49:53;;;;;;;16.10;11.95;;;;;;;;;;5055030;28;20029;-43
2021/07/08 01:52:19;;;;;;;20.80;11.80;;;;;;;;;;5055249;28;20108;-43
2021/07/08 01:54:45;;;;;;;15.70;11.25;;;;;;;;;;5054925;28;20017;-44
2021/07/08 01:57:12;;;;;;;23.73;14.93;;;;;;;;;;5054976;28;20024;-43
2021/07/08 01:59:38;;;;;;;28.38;15.27;;;;;;;;;;5054781;28;20029;-43
2021/07/08 02:02:04;;;;;;;23.02;12.60;;;;;;;;;;5054930;28;20099;-43
2021/07/08 02:04:30;;;;;;;22.38;13.02;;;;;;;;;;5054802;28;20047;-42
2021/07/08 02:06:56;;;;;;;27.88;16.45;;;;;;;;;;5053284;28;20124;-43
2021/07/08 02:09:22;;;;;;;31.38;17.55;;;;;;;;;;5054633;28;20389;-43
2021/07/08 02:11:48;;;;;;;28.95;19.88;;;;;;;;;;5054604;28;20128;-42
2021/07/08 02:14:15;;;;;;;33.92;23.30;;;;;;;;;;5054356;28;20021;-43
2021/07/08 02:16:41;;;;;;;37.65;23.80;;;;;;;;;;5054690;28;20061;-43
2021/07/08 02:19:07;;;;;;;34.88;23.20;;;;;;;;;;5054481;28;20028;-47
2021/07/08 02:21:33;;;;;;;21.65;15.18;;;;;;;;;;5054477;28;20104;-44
2021/07/08 02:23:59;;;;;;;32.47;21.42;;;;;;;;;;5041712;28;20033;-43
2021/07/08 02:26:25;;;;;;;22.25;15.48;;;;;;;;;;5034348;28;20367;-43
2021/07/08 02:28:52;;;;;;;21.48;13.43;;;;;;;;;;5047301;28;20108;-44
2021/07/08 02:31:18;;;;;;;18.65;13.00;;;;;;;;;;5054444;28;20421;-43
2021/07/08 02:33:45;;;;;;;18.55;12.90;;;;;;;;;;5054202;28;20021;-42
2021/07/08 02:36:11;;;;;;;21.25;12.55;;;;;;;;;;5054339;28;20029;-43
2021/07/08 02:38:38;;;;;;;23.48;13.25;;;;;;;;;;5054008;28;20045;-43
2021/07/08 02:41:05;;;;;;;20.33;12.25;;;;;;;;;;5054213;28;20146;-42
2021/07/08 02:43:31;;;;;;;20.00;12.13;;;;;;;;;;5054240;28;20514;-42
2021/07/08 02:45:58;;;;;;;21.08;12.55;;;;;;;;;;5053763;28;20052;-43
2021/07/08 02:48:24;;;;;;;19.92;13.43;;;;;;;;;;5053901;28;20048;-43
2021/07/08 02:50:51;;;;;;;21.80;13.05;;;;;;;;;;5053905;28;20060;-43
2021/07/08 02:53:18;;;;;;;21.98;13.18;;;;;;;;;;5053806;28;20060;-43
2021/07/08 02:55:44;;;;;;;20.33;12.80;;;;;;;;;;5053813;28;20104;-43
2021/07/08 02:58:10;;;;;;;25.35;14.70;;;;;;;;;;5053885;28;20071;-43
2021/07/08 03:00:37;;;;;;;27.75;14.68;;;;;;;;;;5053887;28;20107;-43
2021/07/08 03:03:03;;;;;;;18.85;12.00;;;;;;;;;;5053889;28;20095;-42
2021/07/08 03:05:29;;;;;;;19.63;13.05;;;;;;;;;;5036175;28;20057;-43
2021/07/08 03:07:56;;;;;;;17.92;12.95;;;;;;;;;;5033898;28;20051;-43
2021/07/08 03:10:23;;;;;;;22.50;12.00;;;;;;;;;;5034044;28;20513;-43
2021/07/08 03:12:49;;;;;;;16.15;11.15;;;;;;;;;;5044546;28;20082;-42
2021/07/08 03:15:16;;;;;;;26.98;11.95;;;;;;;;;;5053258;28;20049;-42
2021/07/08 03:17:42;;;;;;;15.20;10.65;;;;;;;;;;5053505;28;20470;-43
2021/07/08 03:20:12;;;;;;;16.40;9.30;;;;;;;;;;5053426;28;20029;-42
2021/07/08 03:22:39;;;;;;;11.38;9.60;;;;;;;;;;5052178;28;20027;-42
2021/07/08 03:25:06;;;;;;;13.35;9.13;;;;;;;;;;5041620;28;20079;-42
2021/07/08 03:27:32;;;;;;;13.98;9.18;;;;;;;;;;5033707;28;20029;-43
2021/07/08 03:29:58;;;;;;;10.65;8.80;;;;;;;;;;5033492;28;20026;-43
2021/07/08 03:32:24;;;;;;;14.80;9.45;;;;;;;;;;5034688;28;20529;-42
2021/07/08 03:34:50;;;;;;;32.75;16.20;;;;;;;;;;5047584;28;20029;-43
2021/07/08 03:37:17;;;;;;;36.15;20.15;;;;;;;;;;5053210;28;20056;-43
2021/07/08 03:39:43;;;;;;;34.45;21.13;;;;;;;;;;5053211;28;20021;-43
2021/07/08 03:42:09;;;;;;;36.92;20.63;;;;;;;;;;5036781;28;20104;-44
2021/07/08 03:44:35;;;;;;;43.92;21.33;;;;;;;;;;5041236;28;20034;-44
2021/07/08 03:47:01;;;;;;;35.38;19.67;;;;;;;;;;5033400;28;20021;-44
2021/07/08 03:49:27;;;;;;;40.30;19.80;;;;;;;;;;5033295;28;20032;-44
2021/07/08 03:51:53;;;;;;;33.97;18.92;;;;;;;;;;5033192;28;20032;-45
2021/07/08 03:54:19;;;;;;;37.00;20.23;;;;;;;;;;5033200;28;20021;-44
2021/07/08 03:56:45;;;;;;;34.92;18.98;;;;;;;;;;5033149;28;20025;-44
2021/07/08 03:59:11;;;;;;;42.20;21.50;;;;;;;;;;5033082;28;20038;-44
2021/07/08 04:01:39;;;;;;;32.30;18.85;;;;;;;;;;5033208;28;20056;-44
2021/07/08 04:04:05;;;;;;;42.75;19.52;;;;;;;;;;5033132;28;20029;-44
2021/07/08 04:06:31;;;;;;;39.83;18.50;;;;;;;;;;5036038;28;20064;-44
2021/07/08 04:08:57;;;;;;;37.55;18.92;;;;;;;;;;5037257;28;20033;-44
2021/07/08 04:11:23;;;;;;;37.30;18.05;;;;;;;;;;5037021;28;20113;-44
2021/07/08 04:13:50;;;;;;;42.55;18.40;;;;;;;;;;5037058;28;20445;-44
2021/07/08 04:16:16;;;;;;;38.13;17.05;;;;;;;;;;5036762;28;20041;-45
2021/07/08 04:18:42;;;;;;;39.35;17.05;;;;;;;;;;5036873;28;20109;-44
2021/07/08 04:21:08;;;;;;;30.75;16.88;;;;;;;;;;5036907;28;20071;-44
2021/07/08 04:23:34;;;;;;;30.88;16.05;;;;;;;;;;5036845;28;20112;-45
2021/07/08 04:26:00;;;;;;;29.98;16.10;;;;;;;;;;5036884;28;20055;-43
2021/07/08 04:28:26;;;;;;;29.73;16.40;;;;;;;;;;5036739;28;20053;-43
2021/07/08 04:30:52;;;;;;;32.83;16.58;;;;;;;;;;5036664;28;20504;-43
2021/07/08 04:33:19;;;;;;;36.42;17.75;;;;;;;;;;5036779;28;20029;-42
2021/07/08 04:35:48;;;;;;;34.50;16.58;;;;;;;;;;5036432;28;20017;-42
2021/07/08 04:38:15;;;;;;;28.98;15.80;;;;;;;;;;5035057;28;20045;-42
2021/07/08 04:40:42;;;;;;;38.03;16.13;;;;;;;;;;5036459;28;20071;-43
2021/07/08 04:43:08;;;;;;;32.97;15.75;;;;;;;;;;5036846;28;20358;-43
2021/07/08 04:45:35;;;;;;;30.52;15.35;;;;;;;;;;5036596;28;20040;-43
2021/07/08 04:48:01;;;;;;;33.75;15.10;;;;;;;;;;5036507;28;20029;-43
2021/07/08 04:50:31;;;;;;;26.23;15.88;;;;;;;;;;5036499;28;20029;-42
2021/07/08 04:52:57;;;;;;;19.45;11.02;;;;;;;;;;5034884;28;20061;-42
2021/07/08 04:55:24;;;;;;;27.45;13.48;;;;;;;;;;5036760;28;20021;-42
2021/07/08 04:57:51;;;;;;;23.15;13.10;;;;;;;;;;5036181;28;20033;-43
2021/07/08 05:00:21;;;;;;;22.88;13.00;;;;;;;;;;5036018;28;20080;-43
2021/07/08 05:02:48;;;;;;;26.67;14.15;;;;;;;;;;5036279;28;20064;-43
2021/07/08 05:05:14;;;;;;;20.13;12.40;;;;;;;;;;5035994;28;20101;-42
2021/07/08 05:07:41;;;;;;;23.35;13.18;;;;;;;;;;5035976;28;20029;-44
2021/07/08 05:10:09;;;;;;;20.33;12.10;;;;;;;;;;5035877;28;20382;-43
2021/07/08 05:12:35;;;;;;;30.27;12.52;;;;;;;;;;5035770;28;20025;-42
2021/07/08 05:15:01;;;;;;;27.10;14.88;;;;;;;;;;5035565;28;20045;-43
2021/07/08 05:17:27;;;;;;;20.58;12.77;;;;;;;;;;5034745;28;20478;-43
2021/07/08 05:19:53;;;;;;;25.25;13.68;;;;;;;;;;5035751;28;20061;-42
2021/07/08 05:22:21;;;;;;;31.25;14.30;;;;;;;;;;5035677;28;20355;-43
2021/07/08 05:24:48;;;;;;;28.70;13.57;;;;;;;;;;5035425;28;20037;-43
2021/07/08 05:27:17;;;;;;;29.60;14.85;;;;;;;;;;5035744;28;20374;-42
2021/07/08 05:29:44;;;;;;;22.38;12.57;;;;;;;;;;5035651;28;20081;-41
2021/07/08 05:32:10;;;;;;;26.80;14.10;;;;;;;;;;5035476;28;20029;-41
2021/07/08 05:34:36;;;;;;;25.00;12.05;;;;;;;;;;5035506;28;20033;-43
2021/07/08 05:37:03;;;;;;;25.52;12.15;;;;;;;;;;5035316;28;20091;-43
2021/07/08 05:39:29;;;;;;;27.90;13.43;;;;;;;;;;5035396;28;20029;-42
2021/07/08 05:41:55;;;;;;;24.27;12.55;;;;;;;;;;5035531;28;20432;-43
2021/07/08 05:44:21;;;;;;;21.63;11.55;;;;;;;;;;5035239;28;20034;-41
2021/07/08 05:46:47;;;;;;;21.70;12.27;;;;;;;;;;5035308;28;20083;-43
2021/07/08 05:49:13;;;;;;;19.83;12.27;;;;;;;;;;5035095;28;20029;-43
2021/07/08 05:51:39;;;;;;;18.88;11.13;;;;;;;;;;5035248;28;20497;-41
2021/07/08 05:54:05;;;;;;;18.48;11.23;;;;;;;;;;5035034;28;20068;-43
2021/07/08 05:56:32;;;;;;;19.52;11.10;;;;;;;;;;5035152;28;20029;-42
2021/07/08 05:58:58;;;;;;;17.92;9.70;;;;;;;;;;5033598;28;20068;-43
2021/07/08 06:01:24;;;;;;;12.07;9.32;;;;;;;;;;5035048;28;20422;-43
2021/07/08 06:03:50;;;;;;;10.45;7.90;;;;;;;;;;5035037;28;20040;-42
2021/07/08 06:06:17;;;;;;;18.30;9.10;;;;;;;;;;5034725;28;20079;-43
2021/07/08 06:08:44;;;;;;;9.45;7.75;;;;;;;;;;5034788;28;20102;-43
2021/07/08 06:11:10;;;;;;;12.30;7.82;;;;;;;;;;5034719;28;20107;-43
2021/07/08 06:13:36;;;;;;;11.35;7.47;;;;;;;;;;5034970;28;20025;-42
2021/07/08 06:16:02;;;;;;;17.55;8.13;;;;;;;;;;5034475;28;20048;-43
2021/07/08 06:18:29;;;;;;;11.18;7.28;;;;;;;;;;5034518;28;20272;-43
2021/07/08 06:20:55;;;;;;;14.25;7.95;;;;;;;;;;5034345;28;20076;-43
2021/07/08 06:23:23;;;;;;;14.45;7.13;;;;;;;;;;5034513;28;20504;-42
2021/07/08 06:25:50;;;;;;;13.98;7.57;;;;;;;;;;5034384;28;20112;-42
2021/07/08 06:28:16;;;;;;;10.65;7.63;;;;;;;;;;5033314;28;20029;-42
2021/07/08 06:30:43;;;;;;;8.77;7.57;;;;;;;;;;5034653;28;20029;-42
2021/07/08 06:33:09;;;;;;;9.65;6.95;;;;;;;;;;5034317;28;20018;-43
2021/07/08 06:35:35;;;;;;;10.57;6.35;;;;;;;;;;5034288;28;20026;-43
2021/07/08 06:38:01;;;;;;;8.70;6.78;;;;;;;;;;5034247;28;20049;-42
2021/07/08 06:40:27;;;;;;;8.27;6.68;;;;;;;;;;5034543;28;20068;-42
2021/07/08 06:42:55;;;;;;;10.07;6.80;;;;;;;;;;5034270;28;20079;-42
2021/07/08 06:45:21;;;;;;;10.50;7.28;;;;;;;;;;5034395;28;20030;-42
2021/07/08 06:47:51;;;;;;;9.07;5.90;;;;;;;;;;5034086;28;20155;-42
2021/07/08 06:50:17;;;;;;;10.60;5.68;;;;;;;;;;5034117;28;20044;-43
2021/07/08 06:52:44;;;;;;;7.63;5.78;;;;;;;;;;5034089;28;20488;-42
2021/07/08 06:55:10;;;;;;;8.82;6.45;;;;;;;;;;5033896;28;20470;-42
2021/07/08 06:57:40;;;;;;;9.10;6.80;;;;;;;;;;5033904;28;20030;-43
2021/07/08 07:00:07;;;;;;;9.18;7.20;;;;;;;;;;5034064;28;20057;-42
2021/07/08 07:02:33;;;;;;;10.25;6.60;;;;;;;;;;5033771;28;20101;-42
2021/07/08 07:04:59;;;;;;;16.67;6.72;;;;;;;;;;5033856;28;20444;-42
2021/07/08 07:07:25;;;;;;;13.27;7.45;;;;;;;;;;5034257;28;20084;-42
2021/07/08 07:09:51;;;;;;;10.45;7.00;;;;;;;;;;5033639;28;20033;-42
2021/07/08 07:12:17;;;;;;;11.57;6.75;;;;;;;;;;5033730;28;20057;-42
2021/07/08 07:14:43;;;;;;;10.00;5.95;;;;;;;;;;5033569;28;20375;-42
2021/07/08 07:17:09;;;;;;;10.50;6.60;;;;;;;;;;5033836;28;20029;-42
2021/07/08 07:19:35;;;;;;;10.18;6.55;;;;;;;;;;5033510;28;20036;-43
2021/07/08 07:22:01;;;;;;;6.60;5.88;;;;;;;;;;5033646;28;20017;-43
2021/07/08 07:24:28;;;;;;;9.73;6.38;;;;;;;;;;5033488;28;20022;-43
2021/07/08 07:26:54;;;;;;;10.93;7.75;;;;;;;;;;5033497;28;20028;-42
2021/07/08 07:29:20;;;;;;;12.20;7.00;;;;;;;;;;5033785;28;20417;-44
2021/07/08 07:31:46;;;;;;;14.25;7.05;;;;;;;;;;5033680;28;20106;-44
2021/07/08 07:34:14;;;;;;;13.50;6.38;;;;;;;;;;5033541;28;20026;-43
2021/07/08 07:36:40;;;;;;;12.23;6.28;;;;;;;;;;5033497;28;20025;-43
2021/07/08 07:39:06;;;;;;;6.82;5.55;;;;;;;;;;5033145;28;20064;-43
2021/07/08 07:41:34;;;;;;;8.15;5.72;;;;;;;;;;5033000;28;20092;-43
2021/07/08 07:44:00;;;;;;;5.93;5.22;;;;;;;;;;5033233;28;20039;-42
2021/07/08 07:46:26;;;;;;;8.13;5.22;;;;;;;;;;5033462;28;20367;-43
2021/07/08 07:48:52;;;;;;;9.07;5.50;;;;;;;;;;5033358;28;20068;-42
2021/07/08 07:51:18;;;;;;;6.85;5.10;;;;;;;;;;5033288;28;20021;-43
2021/07/08 07:53:44;;;;;;;7.00;5.60;;;;;;;;;;5033326;28;20033;-44
2021/07/08 07:56:10;;;;;;;9.00;5.13;;;;;;;;;;5033086;28;20120;-43
2021/07/08 07:58:36;;;;;;;8.43;5.45;;;;;;;;;;5033086;28;20512;-43
2021/07/08 08:01:03;;;;;;;8.32;5.38;;;;;;;;;;5033186;28;20026;-43
2021/07/08 08:03:29;;;;;;;13.00;6.30;;;;;;;;;;5033116;28;20535;-43
2021/07/08 08:08:39;;;;;;;6.00;5.15;;;;;;;;;;5033432;28;20048;-43
2021/07/08 08:11:05;;;;;;;14.52;5.45;;;;;;;;;;5033347;28;20022;-42
2021/07/08 08:13:32;;;;;;;8.43;5.28;;;;;;;;;;5033108;28;20025;-43
2021/07/08 08:15:58;;;;;;;7.40;4.97;;;;;;;;;;5032895;28;20104;-43
2021/07/08 08:18:25;;;;;;;9.05;4.55;;;;;;;;;;5032976;28;20069;-42
2021/07/08 08:20:51;;;;;;;9.65;5.00;;;;;;;;;;5032897;28;20018;-43
2021/07/08 08:23:18;;;;;;;8.27;5.32;;;;;;;;;;5032883;28;20028;-43
2021/07/08 08:25:44;;;;;;;10.85;4.95;;;;;;;;;;5033076;28;20380;-43
2021/07/08 08:28:10;;;;;;;6.97;4.70;;;;;;;;;;5033137;28;20031;-42
2021/07/08 08:30:36;;;;;;;7.30;5.15;;;;;;;;;;5031967;28;20394;-42
2021/07/08 08:33:03;;;;;;;5.25;4.70;;;;;;;;;;5033143;28;20450;-42
2021/07/08 08:35:29;;;;;;;5.82;4.45;;;;;;;;;;5032737;28;20056;-42
2021/07/08 08:37:55;;;;;;;10.73;4.57;;;;;;;;;;5032547;28;20064;-43
2021/07/08 08:40:22;;;;;;;6.68;4.40;;;;;;;;;;5032701;28;20025;-43
2021/07/08 08:42:48;;;;;;;6.38;4.25;;;;;;;;;;5032844;28;20071;-43
2021/07/08 08:45:17;;;;;;;7.38;4.95;;;;;;;;;;5032689;28;20026;-43
2021/07/08 08:47:52;;;;;;;4.93;4.30;;;;;;;;;;5032795;28;20025;-42
2021/07/08 08:50:19;;;;;;;4.78;4.30;;;;;;;;;;5032805;28;20092;-43
2021/07/08 08:52:46;;;;;;;6.25;4.18;;;;;;;;;;5034096;28;20086;-42
2021/07/08 08:55:12;;;;;;;7.78;4.90;;;;;;;;;;5036191;28;20117;-42
2021/07/08 08:57:40;;;;;;;9.82;4.57;;;;;;;;;;5036012;28;20066;-42
2021/07/08 09:00:28;;;;;;;11.38;5.00;;;;;;;;;;5036167;28;20025;-42
2021/07/08 09:03:00;;;;;;;6.17;4.50;;;;;;;;;;5032952;28;20103;-42
2021/07/08 09:05:26;;;;;;;8.02;4.70;;;;;;;;;;5035976;28;20021;-42
2021/07/08 09:07:52;;;;;;;6.28;4.78;;;;;;;;;;5035994;28;20018;-42
2021/07/08 09:10:18;;;;;;;5.20;4.00;;;;;;;;;;5035982;28;20026;-42
2021/07/08 09:12:46;;;;;;;5.03;4.32;;;;;;;;;;5036018;28;20017;-42
2021/07/08 09:15:18;;;;;;;6.32;4.22;;;;;;;;;;5035729;28;20049;-42
2021/07/08 09:17:45;;;;;;;5.10;4.20;;;;;;;;;;5035798;28;20029;-42
2021/07/08 09:20:13;;;;;;;4.22;3.78;;;;;;;;;;5035549;28;20108;-42
2021/07/08 09:22:40;;;;;;;5.00;4.50;;;;;;;;;;5035936;28;20072;-42
2021/07/08 09:25:21;;;;;;;4.57;4.13;;;;;;;;;;5035757;28;20500;-42
2021/07/08 09:27:51;;;;;;;5.78;4.43;;;;;;;;;;5035632;28;20508;-42
2021/07/08 09:30:25;;;;;;;8.38;4.47;;;;;;;;;;5035584;28;20466;-42
2021/07/08 09:32:51;;;;;;;5.05;4.03;;;;;;;;;;5035558;28;20040;-42
2021/07/08 09:35:31;;;;;;;8.32;3.95;;;;;;;;;;5035632;28;20417;-42
2021/07/08 09:38:08;;;;;;;4.93;4.05;;;;;;;;;;5035495;28;20045;-42
2021/07/08 09:40:34;;;;;;;5.00;3.63;;;;;;;;;;5035503;28;20080;-42
2021/07/08 09:43:00;;;;;;;4.75;4.28;;;;;;;;;;5035379;28;20112;-42
2021/07/08 09:45:26;;;;;;;3.97;3.35;;;;;;;;;;5035583;28;20037;-42
2021/07/08 09:47:52;;;;;;;5.75;4.00;;;;;;;;;;5035291;28;20029;-42
2021/07/08 09:50:24;;;;;;;6.47;4.05;;;;;;;;;;5035294;28;20409;-42
2021/07/08 09:53:08;;;;;;;5.95;4.20;;;;;;;;;;5035471;28;20514;-42
2021/07/08 09:55:59;;;;;;;4.53;4.05;;;;;;;;;;5035039;28;20059;-42
2021/07/08 09:58:26;;;;;;;5.05;3.60;;;;;;;;;;5034870;28;20033;-42
2021/07/08 10:00:52;;;;;;;5.63;4.18;;;;;;;;;;5034947;28;20057;-42
2021/07/08 10:03:18;;;;;;;6.07;4.30;;;;;;;;;;5034366;28;20056;-42
2021/07/08 10:05:45;;;;;;;5.40;3.75;;;;;;;;;;5034693;28;20029;-42
2021/07/08 10:08:11;;;;;;;7.10;4.00;;;;;;;;;;5035020;28;20429;-42
2021/07/08 10:10:42;;;;;;;6.15;3.97;;;;;;;;;;5035225;28;20529;-42
2021/07/08 10:13:10;;;;;;;4.65;4.22;;;;;;;;;;5033663;28;20057;-42
2021/07/08 10:15:38;;;;;;;9.80;4.20;;;;;;;;;;5034666;28;20045;-43
2021/07/08 10:18:04;;;;;;;6.75;4.00;;;;;;;;;;5034795;28;20034;-42
2021/07/08 10:20:31;;;;;;;4.82;3.78;;;;;;;;;;5034745;28;20112;-42
2021/07/08 10:22:58;;;;;;;4.78;3.88;;;;;;;;;;5034549;28;20025;-42
2021/07/08 10:25:24;;;;;;;5.35;4.60;;;;;;;;;;5034455;28;20118;-41
2021/07/08 10:27:52;;;;;;;6.93;3.92;;;;;;;;;;5034493;28;20064;-42
2021/07/08 10:30:24;;;;;;;5.28;3.97;;;;;;;;;;5034565;28;20029;-42
2021/07/08 10:32:54;;;;;;;5.50;3.80;;;;;;;;;;5034485;28;20111;-42
2021/07/08 10:35:39;;;;;;;5.28;3.80;;;;;;;;;;5034462;28;20034;-42
2021/07/08 10:38:23;;;;;;;6.13;3.80;;;;;;;;;;5034197;28;20038;-42
2021/07/08 10:40:49;;;;;;;7.90;3.88;;;;;;;;;;5034462;28;20465;-42
2021/07/08 10:43:16;;;;;;;4.13;3.50;;;;;;;;;;5033376;28;20037;-42
2021/07/08 10:45:46;;;;;;;3.83;3.47;;;;;;;;;;5034052;28;20385;-42
2021/07/08 10:48:12;;;;;;;3.85;3.45;;;;;;;;;;5034133;28;20029;-42
2021/07/08 10:50:38;;;;;;;9.85;3.92;;;;;;;;;;5033942;28;20049;-42
2021/07/08 10:53:25;;;;;;;5.43;3.85;;;;;;;;;;5033926;28;20144;-42
2021/07/08 10:55:56;;;;;;;4.97;3.75;;;;;;;;;;5034128;28;20057;-43
2021/07/08 10:58:40;;;;;;;5.15;4.28;;;;;;;;;;5033863;28;20038;-43
2021/07/08 11:01:07;;;;;;;4.13;3.58;;;;;;;;;;5033805;28;20382;-44
2021/07/08 11:03:33;;;;;;;4.57;3.38;;;;;;;;;;5033773;28;20021;-43
2021/07/08 11:06:11;;;;;;;4.22;3.83;;;;;;;;;;5033704;28;20104;-43
2021/07/08 11:08:47;;;;;;;4.18;3.53;;;;;;;;;;5033876;28;20497;-43
2021/07/08 11:11:19;;;;;;;6.28;4.07;;;;;;;;;;5033707;28;20108;-43
2021/07/08 11:13:47;;;;;;;6.78;3.80;;;;;;;;;;5033752;28;20381;-43
2021/07/08 11:16:32;;;;;;;4.63;3.38;;;;;;;;;;5032734;28;20064;-43
2021/07/08 11:19:02;;;;;;;4.53;3.70;;;;;;;;;;5033527;28;20037;-42
2021/07/08 11:21:46;;;;;;;3.97;3.65;;;;;;;;;;5033570;28;20018;-42
2021/07/08 11:24:35;;;;;;;6.35;4.10;;;;;;;;;;5033559;28;20021;-42
2021/07/08 11:27:02;;;;;;;;;;;;;;;;;;5012253;28;20041;-43
2021/07/08 11:29:51;;;;;;;6.95;4.07;;;;;;;;;;5011767;28;19905;-42
2021/07/08 11:32:18;;;;;;;5.00;3.88;;;;;;;;;;4953388;29;20032;-43
2021/07/08 11:34:53;;;;;;;4.35;3.63;;;;;;;;;;4953460;28;20043;-43
2021/07/08 11:37:25;;;;;;;6.97;3.67;;;;;;;;;;4953124;29;20436;-43
2021/07/08 11:39:54;;;;;;;4.72;3.80;;;;;;;;;;4953116;29;20066;-41
2021/07/08 11:42:22;;;;;;;3.83;3.33;;;;;;;;;;4953221;28;20023;-43
2021/07/08 11:44:48;;;;;;;5.32;3.35;;;;;;;;;;4952990;29;20039;-41
2021/07/08 11:47:14;;;;;;;4.68;3.88;;;;;;;;;;4952999;29;20028;-41
2021/07/08 11:49:41;;;;;;;4.70;3.80;;;;;;;;;;4953189;29;20079;-42
2021/07/08 11:52:36;;;;;;;4.10;3.20;;;;;;;;;;4953420;29;20043;-42
2021/07/08 11:55:02;;;;;;;4.35;3.55;;;;;;;;;;4933830;28;20047;-41
2021/07/08 11:57:28;;;;;;;5.78;3.60;;;;;;;;;;4933930;29;20036;-43
2021/07/08 11:59:55;;;;;;;4.95;4.05;;;;;;;;;;4934440;29;20048;-42
2021/07/08 12:02:34;;;;;;;5.32;3.60;;;;;;;;;;4933882;29;20036;-42
2021/07/08 12:05:17;;;;;;;9.43;3.45;;;;;;;;;;4916371;29;20036;-41
2021/07/08 12:07:46;;;;;;;8.05;3.60;;;;;;;;;;4914886;29;20058;-41
2021/07/08 12:10:12;;;;;;;6.57;3.37;;;;;;;;;;5001100;28;20033;-41
2021/07/08 12:12:39;;;;;;;4.50;2.90;;;;;;;;;;5011877;28;20076;-41
2021/07/08 12:15:06;;;;;;;4.80;3.25;;;;;;;;;;5011131;28;20085;-41
2021/07/08 12:17:32;;;;;;;3.80;3.42;;;;;;;;;;5011155;28;20038;-42
2021/07/08 12:20:08;;;;;;;3.90;3.53;;;;;;;;;;5011118;28;20533;-42
2021/07/08 12:22:35;;;;;;;4.93;3.45;;;;;;;;;;5011316;28;20065;-41
2021/07/08 12:25:12;;;;;;;4.63;3.45;;;;;;;;;;5011500;28;20482;-41
2021/07/08 12:27:38;;;;;;;4.35;3.83;;;;;;;;;;5014356;28;20088;-41
2021/07/08 12:30:05;;;;;;;4.47;3.60;;;;;;;;;;4998521;28;20093;-41
2021/07/08 12:32:31;;;;;;;4.00;3.70;;;;;;;;;;5036242;28;20438;-41
2021/07/08 12:35:00;;;;;;;6.30;3.63;;;;;;;;;;5036668;28;20033;-41
2021/07/08 12:37:34;;;;;;;4.15;3.75;;;;;;;;;;5036480;28;20018;-41
2021/07/08 12:40:07;;;;;;;4.18;3.78;;;;;;;;;;5036469;28;20041;-42
2021/07/08 12:42:34;;;;;;;4.93;3.97;;;;;;;;;;5036652;28;20072;-41
2021/07/08 12:45:01;;;;;;;4.82;3.58;;;;;;;;;;5036530;28;20037;-41
2021/07/08 12:47:27;;;;;;;5.85;3.67;;;;;;;;;;5036463;28;20036;-41
2021/07/08 12:49:54;;;;;;;4.90;3.55;;;;;;;;;;5036104;28;20022;-41
2021/07/08 12:52:22;;;;;;;5.20;3.78;;;;;;;;;;5036205;28;20029;-41
2021/07/08 12:54:49;;;;;;;7.70;3.60;;;;;;;;;;5036119;28;20474;-42
2021/07/08 12:57:16;;;;;;;4.55;3.53;;;;;;;;;;5036128;28;20112;-41
2021/07/08 12:59:56;;;;;;;3.90;3.60;;;;;;;;;;5036214;28;20041;-42
2021/07/08 13:02:22;;;;;;;;;;;;;;;;;;5036606;28;20026;-42
2021/07/08 13:04:58;;;;;;;3.58;3.20;;;;;;;;;;5036023;28;19911;-42
2021/07/08 13:07:24;;;;;;;5.57;3.33;;;;;;;;;;5035987;28;20029;-42
2021/07/08 13:10:02;;;;;;;3.92;3.53;;;;;;;;;;5036005;28;20071;-42
2021/07/08 13:12:28;;;;;;;6.80;3.88;;;;;;;;;;5036014;28;20029;-42
2021/07/08 13:14:55;;;;;;;7.80;3.40;;;;;;;;;;5035598;28;20049;-42
2021/07/08 13:17:28;;;;;;;8.45;4.07;;;;;;;;;;5035726;28;20037;-44
2021/07/08 13:20:01;;;;;;;4.45;3.83;;;;;;;;;;5035789;28;20034;-42
2021/07/08 13:22:27;;;;;;;3.67;3.38;;;;;;;;;;5035691;28;20492;-42
2021/07/08 13:24:53;;;;;;;5.85;3.78;;;;;;;;;;5035824;28;20033;-43
2021/07/08 13:27:33;;;;;;;4.97;3.85;;;;;;;;;;5035715;28;20022;-41
2021/07/08 13:30:18;;;;;;;6.65;3.45;;;;;;;;;;5034821;28;20478;-43
2021/07/08 13:32:44;;;;;;;7.03;3.88;;;;;;;;;;5035648;28;20083;-42
2021/07/08 13:35:10;;;;;;;5.20;3.40;;;;;;;;;;5035681;28;20025;-42
2021/07/08 13:37:40;;;;;;;4.45;3.10;;;;;;;;;;5034819;28;20060;-43
2021/07/08 13:40:09;;;;;;;4.27;3.53;;;;;;;;;;5035227;28;20048;-42
2021/07/08 13:42:36;;;;;;;5.15;3.67;;;;;;;;;;5035875;28;20841;-41
2021/07/08 13:45:02;;;;;;;4.88;3.28;;;;;;;;;;5035501;28;20034;-42
2021/07/08 13:47:28;;;;;;;4.97;3.55;;;;;;;;;;5035260;28;20112;-41
2021/07/08 13:49:56;;;;;;;4.45;3.55;;;;;;;;;;5035288;28;20022;-42
2021/07/08 13:52:24;;;;;;;7.90;3.42;;;;;;;;;;5035243;28;20029;-41
2021/07/08 13:54:51;;;;;;;6.93;3.78;;;;;;;;;;5035293;28;20389;-41
2021/07/08 13:57:18;;;;;;;4.32;3.47;;;;;;;;;;5035049;28;20018;-41
2021/07/08 13:59:45;;;;;;;21.38;4.95;;;;;;;;;;5034970;28;20029;-42
2021/07/08 14:02:11;;;;;;;4.18;3.20;;;;;;;;;;5035202;28;20391;-41
2021/07/08 14:04:38;;;;;;;3.78;3.22;;;;;;;;;;5034957;28;20025;-41
2021/07/08 14:07:04;;;;;;;4.32;3.28;;;;;;;;;;5034979;28;20022;-42
2021/07/08 14:09:30;;;;;;;4.85;3.25;;;;;;;;;;5034984;28;20440;-41
2021/07/08 14:11:57;;;;;;;4.25;3.40;;;;;;;;;;5034722;28;20393;-42
2021/07/08 14:14:24;;;;;;;3.65;3.35;;;;;;;;;;5033206;28;20037;-41
2021/07/08 14:16:50;;;;;;;9.82;3.90;;;;;;;;;;5034728;28;20041;-41
2021/07/08 14:19:17;;;;;;;3.88;3.33;;;;;;;;;;5034703;28;20041;-41
2021/07/08 14:21:44;;;;;;;4.18;3.28;;;;;;;;;;5034753;28;20028;-41
2021/07/08 14:24:10;;;;;;;5.97;3.40;;;;;;;;;;5034856;28;20034;-42
2021/07/08 14:26:36;;;;;;;4.88;3.90;;;;;;;;;;5033129;28;20018;-42
2021/07/08 14:29:03;;;;;;;5.68;3.47;;;;;;;;;;5034569;28;20417;-41
2021/07/08 14:31:29;;;;;;;4.00;3.25;;;;;;;;;;5034462;28;20465;-42
2021/07/08 14:33:55;;;;;;;4.65;3.45;;;;;;;;;;5034707;28;20032;-41
2021/07/08 14:36:22;;;;;;;4.22;3.50;;;;;;;;;;5034416;28;20029;-41
2021/07/08 14:38:48;;;;;;;5.15;3.67;;;;;;;;;;5034099;28;20033;-41
2021/07/08 14:41:14;;;;;;;4.50;3.70;;;;;;;;;;5034235;28;20088;-41